Time;durP1;ratioP1;P1;durP2;ratioP2;P2;SDS_P1;SDS_P2;PMS_P1;PMS_P2;Temp;Humidity;BMP_temperature;BMP_pressure;BME280_temperature;BME280_humidity;BME280_pressure;Samples;Min_cycle;Max_cycle;Signal;HPM_P1;HPM_P2
2022/05/05 00:01:20;;;;;;;5.20;4.70;;;11.20;99.90;;;;;;484022;245;28071;-71
2022/05/05 00:03:21;;;;;;;5.30;4.80;;;11.20;99.90;;;;;;484027;244;28152;-72
2022/05/05 00:05:22;;;;;;;6.33;5.70;;;11.20;99.90;;;;;;484010;245;27986;-71
2022/05/05 00:07:24;;;;;;;6.03;5.50;;;11.20;99.90;;;;;;484012;245;28258;-71
2022/05/05 00:09:25;;;;;;;6.10;5.50;;;11.10;99.90;;;;;;484028;246;28182;-72
2022/05/05 00:16:05;;;;;;;5.63;5.13;;;11.10;99.90;;;;;;484021;246;28586;-71
2022/05/05 00:18:06;;;;;;;5.30;4.80;;;11.10;99.90;;;;;;484024;245;27981;-72
2022/05/05 00:20:08;;;;;;;5.67;5.17;;;11.10;99.90;;;;;;484020;245;28111;-71
2022/05/05 00:22:09;;;;;;;6.73;5.50;;;11.10;99.90;;;;;;483981;245;28149;-71
2022/05/05 00:24:11;;;;;;;8.40;7.57;;;11.10;99.90;;;;;;484018;246;28310;-71
2022/05/05 00:26:11;;;;;;;8.20;7.50;;;11.00;99.90;;;;;;483968;246;28135;-72
2022/05/05 00:28:13;;;;;;;7.53;6.80;;;11.00;99.90;;;;;;484025;245;28124;-71
2022/05/05 00:30:14;;;;;;;10.30;9.20;;;11.00;99.90;;;;;;484037;245;28231;-72
2022/05/05 00:32:15;;;;;;;9.43;8.53;;;10.90;99.90;;;;;;484001;246;28142;-71
2022/05/05 00:34:16;;;;;;;8.87;7.97;;;10.90;99.90;;;;;;484012;245;28058;-72
2022/05/05 00:36:18;;;;;;;7.60;6.90;;;11.00;99.90;;;;;;484006;245;28463;-73
2022/05/05 00:38:19;;;;;;;7.30;6.70;;;11.00;99.90;;;;;;484004;246;28661;-71
2022/05/05 00:40:20;;;;;;;8.20;7.30;;;11.00;99.90;;;;;;483985;246;28495;-71
2022/05/05 00:42:21;;;;;;;6.93;6.23;;;11.00;99.90;;;;;;483987;246;28254;-71
2022/05/05 00:44:23;;;;;;;7.37;6.67;;;11.00;99.90;;;;;;484006;245;27974;-71
2022/05/05 00:46:24;;;;;;;6.60;6.00;;;11.00;99.90;;;;;;484035;246;28050;-73
2022/05/05 00:48:26;;;;;;;8.20;7.17;;;11.00;99.90;;;;;;484012;245;27915;-71
2022/05/05 00:50:26;;;;;;;6.40;5.80;;;11.00;99.90;;;;;;483970;241;28234;-72
2022/05/05 00:52:28;;;;;;;8.83;6.33;;;11.00;99.90;;;;;;484016;245;28182;-71
2022/05/05 00:54:29;;;;;;;8.53;7.03;;;11.00;99.90;;;;;;483974;245;27968;-71
2022/05/05 00:56:30;;;;;;;8.60;7.80;;;10.90;99.90;;;;;;484025;245;27973;-73
2022/05/05 00:58:31;;;;;;;8.83;7.60;;;11.00;99.90;;;;;;484023;246;27994;-71
2022/05/05 01:00:33;;;;;;;7.67;6.87;;;11.00;99.90;;;;;;483996;241;28456;-71
2022/05/05 01:02:35;;;;;;;7.93;7.13;;;11.00;99.90;;;;;;484025;246;29332;-71
2022/05/05 01:04:35;;;;;;;7.33;6.70;;;10.90;99.90;;;;;;484016;241;28493;-71
2022/05/05 01:06:36;;;;;;;7.10;6.50;;;11.00;99.90;;;;;;484054;245;28096;-72
2022/05/05 01:08:38;;;;;;;6.60;6.00;;;11.00;99.90;;;;;;484052;246;28190;-71
2022/05/05 01:10:39;;;;;;;6.33;5.73;;;10.90;99.90;;;;;;483992;245;28016;-71
2022/05/05 01:12:40;;;;;;;6.83;6.23;;;10.90;99.90;;;;;;483948;245;28240;-72
2022/05/05 01:14:41;;;;;;;6.70;6.10;;;10.90;99.90;;;;;;483932;246;27985;-71
2022/05/05 01:16:43;;;;;;;6.50;5.90;;;10.90;99.90;;;;;;483877;246;28124;-72
2022/05/05 01:18:44;;;;;;;5.80;5.30;;;10.90;99.90;;;;;;483815;246;27953;-71
2022/05/05 01:20:45;;;;;;;6.60;5.77;;;10.90;99.90;;;;;;483847;245;28021;-72
2022/05/05 01:22:46;;;;;;;6.07;5.50;;;10.90;99.90;;;;;;483996;245;28095;-75
2022/05/05 01:29:27;;;;;;;6.00;5.50;;;10.90;99.90;;;;;;484018;246;28152;-70
2022/05/05 01:31:28;;;;;;;5.90;5.40;;;10.90;99.90;;;;;;484017;239;27987;-71
2022/05/05 01:33:30;;;;;;;5.93;5.33;;;10.90;99.90;;;;;;484049;245;28222;-71
2022/05/05 01:35:30;;;;;;;6.60;6.00;;;10.90;99.90;;;;;;483984;245;28908;-71
2022/05/05 01:37:32;;;;;;;5.60;5.10;;;10.90;99.90;;;;;;484037;245;28451;-71
2022/05/05 01:39:33;;;;;;;6.73;6.10;;;10.80;99.90;;;;;;484025;246;28488;-71
2022/05/05 01:41:36;;;;;;;5.73;5.23;;;10.80;99.90;;;;;;484034;245;28100;-71
2022/05/05 01:43:35;;;;;;;7.13;5.73;;;10.70;99.90;;;;;;483954;246;28020;-71
2022/05/05 01:45:37;;;;;;;6.33;5.70;;;10.70;99.90;;;;;;484030;245;27887;-74
2022/05/05 01:47:38;;;;;;;5.40;4.90;;;10.70;99.90;;;;;;484035;245;28100;-71
2022/05/05 01:49:39;;;;;;;5.33;4.83;;;10.70;99.90;;;;;;484019;246;28088;-73
2022/05/05 01:51:40;;;;;;;5.30;4.90;;;10.70;99.90;;;;;;484019;246;27990;-69
2022/05/05 01:53:42;;;;;;;6.20;5.60;;;10.70;99.90;;;;;;484021;245;28011;-69
2022/05/05 01:55:43;;;;;;;4.70;4.30;;;10.70;99.90;;;;;;484034;245;28014;-73
2022/05/05 01:57:44;;;;;;;6.40;5.77;;;10.70;99.90;;;;;;484034;245;28135;-71
2022/05/05 01:59:45;;;;;;;5.40;4.90;;;10.70;99.90;;;;;;484036;246;28354;-73
2022/05/05 02:01:47;;;;;;;5.57;5.07;;;10.70;99.90;;;;;;484030;246;28489;-71
2022/05/05 02:03:48;;;;;;;5.53;5.03;;;10.80;99.90;;;;;;484021;245;28336;-71
2022/05/05 02:05:49;;;;;;;5.83;5.23;;;10.70;99.90;;;;;;483933;246;28035;-74
2022/05/05 02:07:50;;;;;;;6.93;5.03;;;10.70;99.90;;;;;;484043;246;28088;-71
2022/05/05 02:09:52;;;;;;;5.23;4.73;;;10.70;99.90;;;;;;484040;246;27999;-72
2022/05/05 02:11:53;;;;;;;5.40;4.90;;;10.70;99.90;;;;;;484026;246;28100;-71
2022/05/05 02:13:54;;;;;;;5.20;4.80;;;10.70;99.90;;;;;;483989;243;27852;-72
2022/05/05 02:15:55;;;;;;;5.80;5.30;;;10.70;99.90;;;;;;484039;245;27898;-73
2022/05/05 02:17:57;;;;;;;5.83;5.23;;;10.70;99.90;;;;;;484033;245;27856;-71
2022/05/05 02:19:58;;;;;;;6.73;5.57;;;10.70;99.90;;;;;;484054;245;28132;-71
2022/05/05 02:21:59;;;;;;;5.93;5.43;;;10.70;99.90;;;;;;484053;246;28163;-71
2022/05/05 02:24:00;;;;;;;5.23;4.83;;;10.80;99.90;;;;;;484058;239;28600;-71
2022/05/05 02:26:02;;;;;;;5.23;4.73;;;10.80;99.90;;;;;;484045;245;28693;-72
2022/05/05 02:28:03;;;;;;;5.13;4.73;;;10.80;99.90;;;;;;484049;245;28538;-71
2022/05/05 02:30:04;;;;;;;5.13;4.70;;;10.80;99.90;;;;;;484044;246;28497;-71
2022/05/05 02:32:05;;;;;;;5.17;4.77;;;10.80;99.90;;;;;;484045;246;28138;-73
2022/05/05 02:34:08;;;;;;;5.10;4.70;;;10.80;99.90;;;;;;484026;245;28077;-71
2022/05/05 02:40:29;;;;;;;5.23;4.83;;;10.80;99.90;;;;;;484020;245;28019;-72
2022/05/05 02:42:30;;;;;;;5.37;4.87;;;10.80;99.90;;;;;;483988;245;28599;-72
2022/05/05 02:44:31;;;;;;;5.10;4.70;;;10.80;99.90;;;;;;484033;246;28431;-71
2022/05/05 02:46:33;;;;;;;5.60;5.10;;;10.80;99.90;;;;;;484020;245;28561;-71
2022/05/05 02:48:34;;;;;;;4.93;4.53;;;10.80;99.90;;;;;;484023;241;28349;-74
2022/05/05 02:50:35;;;;;;;5.30;4.80;;;10.80;99.90;;;;;;484029;246;27737;-71
2022/05/05 02:52:36;;;;;;;4.73;4.33;;;10.80;99.90;;;;;;484011;246;27995;-72
2022/05/05 02:54:55;;;;;;;6.37;5.80;;;10.80;99.90;;;;;;484002;246;27881;-71
2022/05/05 02:56:54;;;;;;;6.90;4.77;;;10.80;99.90;;;;;;483931;246;27864;-72
2022/05/05 02:58:55;;;;;;;5.40;4.90;;;10.80;99.90;;;;;;484018;245;27860;-71
2022/05/05 03:00:57;;;;;;;5.47;4.97;;;10.80;99.90;;;;;;484020;246;28174;-72
2022/05/05 03:02:58;;;;;;;5.07;4.67;;;10.80;99.90;;;;;;484039;245;27917;-74
2022/05/05 03:04:59;;;;;;;4.83;4.40;;;10.80;99.90;;;;;;484040;246;28003;-71
2022/05/05 03:07:00;;;;;;;5.70;5.20;;;10.70;99.90;;;;;;484027;246;28020;-73
2022/05/05 03:09:02;;;;;;;5.03;4.53;;;10.70;99.90;;;;;;484038;246;27839;-71
2022/05/05 03:11:03;;;;;;;4.40;4.10;;;10.70;99.90;;;;;;484036;246;28428;-71
2022/05/05 03:13:04;;;;;;;5.53;5.03;;;10.80;99.90;;;;;;484001;245;28531;-73
2022/05/05 03:15:06;;;;;;;4.87;4.47;;;10.80;99.90;;;;;;484050;246;28322;-71
2022/05/05 03:17:07;;;;;;;5.17;4.70;;;10.80;99.90;;;;;;483965;245;28098;-71
2022/05/05 03:19:08;;;;;;;4.30;4.00;;;10.80;99.90;;;;;;484025;245;28068;-71
2022/05/05 03:21:09;;;;;;;5.10;4.60;;;10.70;99.90;;;;;;484030;246;28002;-71
2022/05/05 03:23:10;;;;;;;5.30;4.80;;;10.70;99.90;;;;;;484014;245;28030;-74
2022/05/05 03:25:12;;;;;;;5.00;4.60;;;10.70;99.90;;;;;;484011;245;28115;-72
2022/05/05 03:27:13;;;;;;;5.80;5.30;;;10.70;99.90;;;;;;484002;246;28101;-72
2022/05/05 03:29:14;;;;;;;5.83;5.30;;;10.70;99.90;;;;;;484021;245;27979;-71
2022/05/05 03:31:15;;;;;;;5.73;5.23;;;10.70;99.90;;;;;;484030;245;27946;-71
2022/05/05 03:33:17;;;;;;;5.17;4.77;;;10.70;99.90;;;;;;484044;245;28037;-72
2022/05/05 03:35:18;;;;;;;5.70;5.20;;;10.80;99.90;;;;;;484005;246;28507;-71
2022/05/05 03:37:19;;;;;;;5.23;4.73;;;10.80;99.90;;;;;;483989;246;28358;-72
2022/05/05 03:39:21;;;;;;;5.43;4.93;;;10.80;99.90;;;;;;484042;245;28685;-74
2022/05/05 03:41:22;;;;;;;5.07;4.63;;;10.80;99.90;;;;;;483997;246;28449;-71
2022/05/05 03:43:23;;;;;;;5.57;5.07;;;10.70;99.90;;;;;;483992;245;27996;-71
2022/05/05 03:45:24;;;;;;;5.70;5.20;;;10.70;99.90;;;;;;484017;246;28060;-71
2022/05/05 03:47:26;;;;;;;4.80;4.40;;;10.80;99.90;;;;;;483944;246;27880;-71
2022/05/05 03:49:27;;;;;;;5.40;4.90;;;10.70;99.90;;;;;;484030;245;28047;-74
2022/05/05 03:51:28;;;;;;;4.60;4.23;;;10.80;99.90;;;;;;483998;245;27906;-71
2022/05/05 03:53:29;;;;;;;5.23;4.73;;;10.70;99.90;;;;;;483988;246;28016;-71
2022/05/05 03:55:31;;;;;;;4.90;4.50;;;10.70;99.90;;;;;;484029;246;28056;-71
2022/05/05 03:57:33;;;;;;;4.63;4.23;;;10.70;99.90;;;;;;483985;245;27950;-72
2022/05/05 03:59:33;;;;;;;5.50;4.97;;;10.70;99.90;;;;;;483940;246;28608;-73
2022/05/05 04:01:34;;;;;;;5.50;5.00;;;10.80;99.90;;;;;;484017;244;28307;-71
2022/05/05 04:03:42;;;;;;;5.87;5.27;;;10.80;99.90;;;;;;484010;246;28685;-72
2022/05/05 04:05:37;;;;;;;5.33;4.83;;;10.80;99.90;;;;;;483536;246;29327;-71
2022/05/05 04:07:38;;;;;;;6.30;5.03;;;10.80;99.90;;;;;;483995;246;28166;-72
2022/05/05 04:09:39;;;;;;;5.93;5.37;;;10.80;99.90;;;;;;484031;246;28010;-73
2022/05/05 04:11:41;;;;;;;4.93;4.53;;;10.80;99.90;;;;;;484012;245;27973;-72
2022/05/05 04:13:42;;;;;;;5.50;5.10;;;10.80;99.90;;;;;;483993;246;28053;-72
2022/05/05 04:15:43;;;;;;;5.30;4.80;;;10.80;99.90;;;;;;484016;245;27773;-71
2022/05/05 04:17:44;;;;;;;4.93;4.57;;;10.80;99.90;;;;;;483988;245;28066;-71
2022/05/05 04:19:46;;;;;;;5.80;5.30;;;10.80;99.90;;;;;;484014;245;28071;-72
2022/05/05 04:21:47;;;;;;;5.00;4.60;;;10.80;99.90;;;;;;483981;245;27842;-71
2022/05/05 04:23:48;;;;;;;5.70;5.17;;;10.80;99.90;;;;;;483992;245;27908;-71
2022/05/05 04:25:49;;;;;;;5.33;4.93;;;10.80;99.90;;;;;;483996;245;29080;-74
2022/05/05 04:27:51;;;;;;;5.43;4.93;;;10.80;99.90;;;;;;483962;245;28930;-71
2022/05/05 04:29:52;;;;;;;5.20;4.80;;;10.80;99.90;;;;;;483983;245;28483;-71
2022/05/05 04:31:53;;;;;;;4.90;4.50;;;10.80;99.90;;;;;;483997;245;27964;-71
2022/05/05 04:33:54;;;;;;;5.87;5.37;;;10.80;99.90;;;;;;484037;245;28077;-71
2022/05/05 04:35:56;;;;;;;5.23;4.83;;;10.80;99.90;;;;;;484008;246;28116;-74
2022/05/05 04:37:57;;;;;;;5.63;5.13;;;10.70;99.90;;;;;;484022;245;28174;-71
2022/05/05 04:39:58;;;;;;;6.60;5.00;;;10.70;99.90;;;;;;483981;246;28019;-72
2022/05/05 04:41:59;;;;;;;6.43;5.90;;;10.70;99.90;;;;;;483996;245;28064;-71
2022/05/05 04:44:01;;;;;;;5.63;5.13;;;10.80;99.90;;;;;;483990;245;27784;-71
2022/05/05 04:46:02;;;;;;;6.53;5.93;;;10.80;99.90;;;;;;484014;245;27986;-75
2022/05/05 04:48:03;;;;;;;6.03;5.43;;;10.70;99.90;;;;;;484008;244;28077;-71
2022/05/05 04:50:05;;;;;;;6.17;5.60;;;10.70;99.90;;;;;;484018;246;28420;-72
2022/05/05 04:52:06;;;;;;;6.47;5.87;;;10.70;99.90;;;;;;483906;246;28321;-71
2022/05/05 04:54:07;;;;;;;6.37;5.77;;;10.60;99.90;;;;;;484010;246;28497;-71
2022/05/05 04:56:10;;;;;;;6.50;6.00;;;10.50;99.90;;;;;;484034;245;28006;-74
2022/05/05 04:58:09;;;;;;;5.77;5.27;;;10.50;99.90;;;;;;483953;246;27980;-71
2022/05/05 05:00:11;;;;;;;6.77;4.70;;;10.50;99.90;;;;;;484018;246;27999;-72
2022/05/05 05:02:12;;;;;;;6.20;5.60;;;10.50;99.90;;;;;;484034;246;27947;-71
2022/05/05 05:04:13;;;;;;;6.27;5.67;;;10.50;99.90;;;;;;484013;245;28027;-71
2022/05/05 05:06:14;;;;;;;5.60;5.10;;;10.60;99.90;;;;;;483999;246;28362;-74
2022/05/05 05:08:16;;;;;;;5.87;5.37;;;10.60;99.90;;;;;;484022;245;27844;-72
2022/05/05 05:10:17;;;;;;;7.03;6.33;;;10.60;99.90;;;;;;484019;246;28018;-72
2022/05/05 05:12:18;;;;;;;8.53;7.57;;;10.60;99.90;;;;;;484010;246;28433;-71
2022/05/05 05:14:19;;;;;;;8.43;7.53;;;10.50;99.90;;;;;;483639;245;28458;-72
2022/05/05 05:16:21;;;;;;;7.10;6.40;;;10.50;99.90;;;;;;483982;245;28477;-73
2022/05/05 05:18:22;;;;;;;8.40;6.90;;;10.60;99.90;;;;;;483918;246;28508;-71
2022/05/05 05:20:23;;;;;;;7.40;6.70;;;10.60;99.90;;;;;;484001;245;27999;-72
2022/05/05 05:22:24;;;;;;;6.77;6.07;;;10.60;99.90;;;;;;484025;245;27933;-71
2022/05/05 05:24:26;;;;;;;7.57;6.87;;;10.60;99.90;;;;;;484012;246;27985;-71
2022/05/05 05:26:27;;;;;;;7.37;6.67;;;10.60;99.90;;;;;;484010;245;28024;-72
2022/05/05 05:28:28;;;;;;;7.60;6.80;;;10.60;99.90;;;;;;483989;246;27984;-71
2022/05/05 05:30:29;;;;;;;7.70;6.90;;;10.50;99.90;;;;;;483992;246;28023;-72
2022/05/05 05:32:31;;;;;;;8.03;7.20;;;10.50;99.90;;;;;;484004;245;28353;-71
2022/05/05 05:34:32;;;;;;;8.07;7.27;;;10.50;99.90;;;;;;484000;246;27951;-71
2022/05/05 05:36:33;;;;;;;10.50;9.03;;;10.50;99.90;;;;;;484005;245;28326;-72
2022/05/05 05:38:34;;;;;;;9.93;9.00;;;10.40;99.90;;;;;;484010;246;28511;-72
2022/05/05 05:40:36;;;;;;;9.80;8.80;;;10.40;99.90;;;;;;484003;246;28557;-71
2022/05/05 05:42:37;;;;;;;8.40;7.60;;;10.40;99.90;;;;;;484012;246;28022;-75
2022/05/05 05:44:38;;;;;;;9.57;8.50;;;10.40;99.90;;;;;;484001;245;27958;-71
2022/05/05 05:46:39;;;;;;;14.13;8.30;;;10.40;99.90;;;;;;483989;246;27974;-73
2022/05/05 05:48:41;;;;;;;7.87;7.00;;;10.40;99.90;;;;;;483996;246;28040;-71
2022/05/05 05:50:42;;;;;;;8.23;7.33;;;10.40;99.90;;;;;;483978;246;28039;-71
2022/05/05 05:52:43;;;;;;;9.17;8.27;;;10.30;99.90;;;;;;484028;245;27907;-75
2022/05/05 05:54:44;;;;;;;7.20;6.50;;;10.30;99.90;;;;;;484041;245;28089;-71
2022/05/05 05:56:46;;;;;;;9.37;7.53;;;10.30;99.90;;;;;;484019;245;27735;-72
2022/05/05 05:58:47;;;;;;;10.37;7.10;;;10.30;99.90;;;;;;484034;246;27991;-71
2022/05/05 06:00:48;;;;;;;8.10;7.33;;;10.30;99.90;;;;;;484015;245;28416;-71
2022/05/05 06:05:09;;;;;;;6.50;5.90;;;10.30;99.90;;;;;;483993;246;27833;-71
2022/05/05 06:07:10;;;;;;;6.93;6.33;;;10.30;99.90;;;;;;484025;246;28008;-71
2022/05/05 06:09:13;;;;;;;7.60;6.70;;;10.30;99.90;;;;;;483919;245;28364;-73
2022/05/05 06:11:14;;;;;;;8.70;7.37;;;10.30;99.90;;;;;;483928;246;28194;-71
2022/05/05 06:13:14;;;;;;;9.80;8.80;;;10.20;99.90;;;;;;483999;241;28467;-72
2022/05/05 06:15:15;;;;;;;11.73;8.03;;;10.20;99.90;;;;;;484031;246;27945;-72
2022/05/05 06:17:17;;;;;;;12.17;9.40;;;10.10;99.90;;;;;;484016;245;28208;-72
2022/05/05 06:19:18;;;;;;;12.80;9.13;;;10.00;99.90;;;;;;484002;245;27969;-73
2022/05/05 06:21:19;;;;;;;15.47;10.43;;;10.10;99.90;;;;;;484038;245;27961;-71
2022/05/05 06:23:20;;;;;;;16.03;12.20;;;10.00;99.90;;;;;;484013;246;28079;-72
2022/05/05 06:25:23;;;;;;;15.97;12.37;;;9.90;99.90;;;;;;484003;246;28247;-72
2022/05/05 06:27:23;;;;;;;15.37;12.03;;;9.80;99.90;;;;;;483952;246;27987;-71
2022/05/05 06:29:25;;;;;;;17.33;12.57;;;9.80;99.90;;;;;;484021;246;28474;-73
2022/05/05 06:31:25;;;;;;;16.57;12.57;;;9.80;99.90;;;;;;484019;246;28411;-71
2022/05/05 06:33:27;;;;;;;17.07;10.83;;;9.80;99.90;;;;;;484005;246;27993;-72
2022/05/05 06:35:28;;;;;;;11.63;10.43;;;9.90;99.90;;;;;;484004;246;28152;-72
2022/05/05 06:37:29;;;;;;;16.60;11.17;;;10.10;99.90;;;;;;484012;246;27967;-71
2022/05/05 06:39:30;;;;;;;14.60;10.13;;;10.10;99.90;;;;;;484030;246;28006;-72
2022/05/05 06:41:32;;;;;;;15.57;10.10;;;10.20;99.90;;;;;;484026;246;27848;-71
2022/05/05 06:43:33;;;;;;;9.97;8.87;;;10.20;99.90;;;;;;484022;246;27787;-71
2022/05/05 06:45:34;;;;;;;8.87;7.97;;;10.30;99.90;;;;;;484012;245;28452;-74
2022/05/05 06:47:35;;;;;;;10.10;9.00;;;10.30;99.90;;;;;;483995;246;28663;-74
2022/05/05 06:49:37;;;;;;;10.30;8.40;;;10.40;99.90;;;;;;484037;245;28576;-71
2022/05/05 06:51:38;;;;;;;8.27;7.47;;;10.30;99.90;;;;;;484030;245;27950;-71
2022/05/05 06:53:39;;;;;;;8.13;7.10;;;10.30;99.90;;;;;;483997;246;27973;-72
2022/05/05 06:55:41;;;;;;;9.10;8.20;;;10.30;99.90;;;;;;483999;245;27968;-73
2022/05/05 06:57:43;;;;;;;8.63;7.83;;;10.20;99.90;;;;;;484036;246;28082;-72
2022/05/05 06:59:43;;;;;;;8.73;7.50;;;10.20;99.90;;;;;;483924;246;28022;-72
2022/05/05 07:01:53;;;;;;;8.13;7.33;;;10.30;99.90;;;;;;484047;245;28084;-71
2022/05/05 07:06:14;;;;;;;8.53;7.73;;;10.40;99.90;;;;;;475734;249;27886;-72
2022/05/05 07:08:15;;;;;;;9.43;8.50;;;10.40;99.90;;;;;;474715;249;27889;-72
2022/05/05 07:12:36;;;;;;;9.83;8.50;;;10.50;99.90;;;;;;468185;253;28638;-72
2022/05/05 07:14:37;;;;;;;9.20;7.60;;;10.50;99.90;;;;;;468180;254;28566;-72
2022/05/05 07:16:38;;;;;;;8.30;7.50;;;10.60;99.90;;;;;;468179;254;28611;-71
2022/05/05 07:18:40;;;;;;;8.17;7.37;;;10.60;99.90;;;;;;468169;254;27864;-71
2022/05/05 07:20:41;;;;;;;11.30;8.37;;;10.60;99.90;;;;;;468190;254;27962;-71
2022/05/05 07:22:42;;;;;;;8.80;7.90;;;10.60;99.90;;;;;;468182;254;28131;-71
2022/05/05 07:24:43;;;;;;;9.73;8.30;;;10.60;99.90;;;;;;468167;253;27916;-72
2022/05/05 07:26:45;;;;;;;11.87;10.47;;;10.60;99.90;;;;;;468182;251;28041;-71
2022/05/05 07:28:46;;;;;;;15.27;11.90;;;10.50;99.90;;;;;;468183;254;27855;-72
2022/05/05 07:30:47;;;;;;;17.57;12.10;;;10.50;99.90;;;;;;468172;254;28002;-74
2022/05/05 07:32:49;;;;;;;16.10;12.63;;;10.60;99.90;;;;;;468142;254;28653;-71
2022/05/05 07:34:50;;;;;;;20.03;12.80;;;10.50;99.90;;;;;;468085;254;28857;-72
2022/05/05 07:36:51;;;;;;;17.00;14.40;;;10.40;99.90;;;;;;468094;254;28007;-71
2022/05/05 07:38:52;;;;;;;20.07;12.90;;;10.40;99.90;;;;;;484045;243;27725;-72
2022/05/05 07:40:54;;;;;;;20.63;14.00;;;10.40;99.90;;;;;;483959;245;28237;-75
2022/05/05 07:42:55;;;;;;;18.93;13.00;;;10.50;99.90;;;;;;475366;249;28073;-71
2022/05/05 07:44:56;;;;;;;18.03;14.30;;;10.40;99.90;;;;;;483801;246;28141;-72
2022/05/05 07:46:57;;;;;;;18.43;13.57;;;10.30;99.90;;;;;;483956;246;28606;-71
2022/05/05 07:48:59;;;;;;;16.23;13.27;;;10.40;99.90;;;;;;483812;246;28567;-71
2022/05/05 07:51:00;;;;;;;16.13;13.60;;;10.60;99.90;;;;;;484006;245;28006;-74
2022/05/05 07:53:01;;;;;;;16.20;12.97;;;10.50;99.90;;;;;;484004;241;27860;-71
2022/05/05 07:55:02;;;;;;;16.20;12.00;;;10.50;99.90;;;;;;484018;246;27994;-72
2022/05/05 07:57:04;;;;;;;17.07;12.43;;;10.70;99.90;;;;;;484036;246;27992;-71
2022/05/05 07:59:05;;;;;;;13.77;10.90;;;10.80;99.90;;;;;;484013;246;28046;-71
2022/05/05 08:01:06;;;;;;;12.50;10.77;;;10.90;99.90;;;;;;483990;246;28928;-74
2022/05/05 08:03:07;;;;;;;10.03;9.03;;;11.10;99.90;;;;;;484020;246;28803;-71
2022/05/05 08:05:09;;;;;;;11.70;10.13;;;11.20;99.90;;;;;;483995;246;28393;-73
2022/05/05 08:07:10;;;;;;;13.77;9.93;;;11.10;99.90;;;;;;484006;246;28234;-71
2022/05/05 08:09:11;;;;;;;14.30;10.33;;;11.20;99.90;;;;;;484004;245;28111;-71
2022/05/05 08:11:12;;;;;;;11.23;9.90;;;11.40;99.90;;;;;;484007;246;28328;-73
2022/05/05 08:13:14;;;;;;;11.00;9.33;;;11.50;99.90;;;;;;484020;245;28206;-71
2022/05/05 08:15:16;;;;;;;10.00;8.90;;;11.70;99.90;;;;;;484015;246;28552;-72
2022/05/05 08:17:16;;;;;;;12.40;8.80;;;11.70;99.90;;;;;;483969;245;29625;-72
2022/05/05 08:19:18;;;;;;;11.00;8.40;;;11.70;99.90;;;;;;484026;244;29159;-71
2022/05/05 08:21:19;;;;;;;8.87;7.97;;;11.80;99.90;;;;;;484010;246;28644;-73
2022/05/05 08:23:20;;;;;;;9.90;8.10;;;12.00;99.90;;;;;;483978;243;28410;-72
2022/05/05 08:30:02;;;;;;;12.10;8.37;;;12.30;99.90;;;;;;484010;246;26996;-72
2022/05/05 08:32:03;;;;;;;8.73;7.83;;;12.20;99.90;;;;;;483997;245;28085;-71
2022/05/05 08:34:04;;;;;;;11.73;8.17;;;12.10;99.90;;;;;;484064;245;28540;-71
2022/05/05 08:36:05;;;;;;;10.97;8.27;;;12.00;99.90;;;;;;484042;245;28695;-74
2022/05/05 08:38:07;;;;;;;9.87;8.30;;;11.90;99.90;;;;;;484029;245;28773;-72
2022/05/05 08:40:08;;;;;;;9.30;8.40;;;11.90;99.90;;;;;;484016;246;28837;-72
2022/05/05 08:42:09;;;;;;;10.53;7.40;;;12.00;99.90;;;;;;483998;246;28198;-71
2022/05/05 08:44:10;;;;;;;9.43;8.20;;;12.10;99.90;;;;;;484028;245;28143;-72
2022/05/05 08:46:11;;;;;;;8.43;7.47;;;12.00;99.90;;;;;;483987;245;28545;-74
2022/05/05 08:48:13;;;;;;;9.27;7.63;;;12.10;99.90;;;;;;484036;245;28835;-72
2022/05/05 08:50:14;;;;;;;8.87;7.77;;;12.00;99.90;;;;;;483994;246;28467;-71
2022/05/05 08:52:15;;;;;;;11.20;7.87;;;11.80;99.90;;;;;;484007;246;28459;-71
2022/05/05 08:54:17;;;;;;;9.40;7.80;;;11.80;99.90;;;;;;484034;245;28699;-72
2022/05/05 08:56:18;;;;;;;9.97;8.10;;;11.90;99.90;;;;;;483991;246;29018;-72
2022/05/05 08:58:19;;;;;;;10.90;8.70;;;11.90;99.90;;;;;;484010;245;28437;-71
2022/05/05 09:00:20;;;;;;;11.70;9.30;;;11.80;99.90;;;;;;483957;245;28993;-71
2022/05/05 09:02:22;;;;;;;12.60;9.60;;;11.70;99.90;;;;;;483976;246;29488;-71
2022/05/05 09:04:23;;;;;;;12.30;10.03;;;11.70;99.90;;;;;;483979;245;28906;-71
2022/05/05 09:06:24;;;;;;;11.23;8.20;;;11.70;99.90;;;;;;483927;245;29357;-73
2022/05/05 09:08:25;;;;;;;9.80;8.40;;;11.80;99.90;;;;;;483934;245;28332;-72
2022/05/05 09:10:27;;;;;;;9.20;8.20;;;11.80;99.90;;;;;;483858;245;28574;-72
2022/05/05 09:12:28;;;;;;;9.23;7.40;;;11.80;99.90;;;;;;483796;246;28522;-71
2022/05/05 09:14:29;;;;;;;7.97;7.17;;;11.80;99.90;;;;;;483831;245;28237;-71
2022/05/05 09:16:30;;;;;;;8.43;7.50;;;11.80;99.90;;;;;;483957;245;28483;-73
2022/05/05 09:18:32;;;;;;;9.90;8.90;;;11.80;99.90;;;;;;484008;245;28319;-71
2022/05/05 09:20:33;;;;;;;12.43;8.63;;;11.80;99.90;;;;;;483966;246;28513;-72
2022/05/05 09:22:36;;;;;;;12.00;8.80;;;11.70;99.90;;;;;;483992;241;29956;-72
2022/05/05 09:24:35;;;;;;;14.40;9.33;;;11.60;99.90;;;;;;483947;246;29009;-71
2022/05/05 09:26:37;;;;;;;11.73;9.47;;;11.60;99.90;;;;;;484003;245;28618;-72
2022/05/05 09:28:38;;;;;;;9.50;8.38;;;11.70;99.90;;;;;;481215;245;36179;-71
2022/05/05 09:30:39;;;;;;;9.00;8.10;;;11.70;99.90;;;;;;484033;245;27540;-72
2022/05/05 09:32:40;;;;;;;9.80;8.27;;;11.70;99.90;;;;;;484033;246;28619;-75
2022/05/05 09:34:42;;;;;;;9.60;7.90;;;11.70;99.90;;;;;;484037;245;28421;-72
2022/05/05 09:36:43;;;;;;;9.23;8.27;;;11.80;99.90;;;;;;484020;245;28582;-73
2022/05/05 09:38:44;;;;;;;11.57;8.43;;;11.80;99.90;;;;;;484031;245;28857;-72
2022/05/05 09:40:45;;;;;;;9.93;8.60;;;11.90;99.90;;;;;;484018;245;28561;-71
2022/05/05 09:42:47;;;;;;;11.50;8.73;;;11.90;99.90;;;;;;484029;245;29058;-74
2022/05/05 09:44:48;;;;;;;10.23;9.10;;;11.90;99.90;;;;;;484013;246;29355;-71
2022/05/05 09:46:49;;;;;;;10.77;8.20;;;11.90;99.90;;;;;;484014;246;29338;-71
2022/05/05 09:48:50;;;;;;;8.57;7.67;;;12.00;99.90;;;;;;484038;245;28833;-71
2022/05/05 09:50:52;;;;;;;8.63;7.83;;;12.00;99.90;;;;;;484027;245;28550;-72
2022/05/05 09:57:41;;;;;;;11.93;9.57;;;12.10;99.90;;;;;;484016;246;28537;-73
2022/05/05 09:59:42;;;;;;;11.67;9.50;;;12.00;99.90;;;;;;484011;241;28424;-72
2022/05/05 10:01:47;;;;;;;10.70;9.43;;;11.80;99.90;;;;;;484019;246;28437;-73
2022/05/05 10:04:03;;;;;;;11.30;9.40;;;11.80;99.90;;;;;;483799;246;29002;-71
2022/05/05 10:06:04;;;;;;;11.90;8.93;;;11.80;99.90;;;;;;484037;245;29747;-72
2022/05/05 10:08:05;;;;;;;11.57;9.40;;;11.90;99.90;;;;;;484036;246;28273;-73
2022/05/05 10:10:07;;;;;;;13.40;9.70;;;11.90;99.90;;;;;;484072;245;28521;-72
2022/05/05 10:12:08;;;;;;;10.00;8.47;;;11.90;99.90;;;;;;484032;245;28876;-72
2022/05/05 10:14:09;;;;;;;12.90;9.33;;;12.00;99.90;;;;;;484036;245;28516;-73
2022/05/05 10:16:10;;;;;;;15.13;9.40;;;12.10;99.90;;;;;;484052;245;28462;-74
2022/05/05 10:18:12;;;;;;;9.53;8.53;;;12.20;99.90;;;;;;484060;245;28635;-72
2022/05/05 10:20:14;;;;;;;11.00;8.60;;;12.30;99.90;;;;;;484030;245;29055;-72
2022/05/05 10:22:14;;;;;;;8.93;7.33;;;12.30;99.90;;;;;;484011;245;28921;-72
2022/05/05 10:24:17;;;;;;;10.10;7.83;;;;;;;;;;484045;245;29275;-72
2022/05/05 10:26:19;;;;;;;9.97;7.90;;;;;;;;;;484005;245;27721;-71
2022/05/05 10:28:20;;;;;;;10.87;8.80;;;12.20;99.90;;;;;;484013;245;26579;-72
2022/05/05 10:30:22;;;;;;;12.10;9.53;;;12.30;99.90;;;;;;484026;244;28234;-71
2022/05/05 10:32:23;;;;;;;11.10;8.47;;;12.20;99.90;;;;;;484040;245;28950;-71
2022/05/05 10:34:24;;;;;;;13.33;8.30;;;12.20;99.90;;;;;;484035;245;28473;-73
2022/05/05 10:36:25;;;;;;;10.03;8.33;;;12.30;99.90;;;;;;484023;245;28921;-72
2022/05/05 10:38:27;;;;;;;11.70;9.30;;;12.20;99.90;;;;;;484007;246;28568;-72
2022/05/05 10:40:30;;;;;;;13.00;9.70;;;;;;;;;;484002;246;28809;-71
2022/05/05 10:42:31;;;;;;;10.00;8.63;;;12.20;99.90;;;;;;483977;246;26646;-73
2022/05/05 10:44:32;;;;;;;10.53;8.70;;;12.20;99.90;;;;;;483977;245;28356;-71
2022/05/05 10:46:33;;;;;;;10.07;8.00;;;12.20;99.90;;;;;;484007;246;28684;-72
2022/05/05 10:48:38;;;;;;;9.20;7.77;;;12.30;99.90;;;;;;484030;245;28890;-71
2022/05/05 10:50:54;;;;;;;9.00;7.87;;;12.40;99.90;;;;;;483844;246;28647;-71
2022/05/05 10:52:39;;;;;;;8.77;7.73;;;12.60;99.90;;;;;;482917;246;28787;-72
2022/05/05 10:54:41;;;;;;;11.57;8.37;;;12.60;99.90;;;;;;484027;245;28175;-72
2022/05/05 10:56:42;;;;;;;11.97;9.03;;;12.60;99.90;;;;;;484019;245;28430;-71
2022/05/05 10:58:43;;;;;;;14.30;9.17;;;12.60;99.90;;;;;;484025;245;28234;-72